createdAt,value
2018-02-16T00:00:47.646Z,55.33
2018-02-16T00:03:15.959Z,68.03
2018-02-16T00:05:44.265Z,62.43
2018-02-16T00:08:13.325Z,71.43
2018-02-16T00:10:41.625Z,65.77
2018-02-16T00:13:09.937Z,60.93
2018-02-16T00:15:38.244Z,55.00
2018-02-16T00:18:06.537Z,79.13
2018-02-16T00:20:34.817Z,65.53
2018-02-16T00:23:03.105Z,48.67
2018-02-16T00:25:31.445Z,52.97
2018-02-16T00:27:59.745Z,59.30
2018-02-16T00:30:28.037Z,61.33
2018-02-16T00:32:56.325Z,57.43
2018-02-16T00:35:25.357Z,45.43
2018-02-16T00:37:53.685Z,56.97
2018-02-16T00:40:21.985Z,53.87
2018-02-16T00:42:51.017Z,60.63
2018-02-16T00:45:19.325Z,60.07
2018-02-16T00:47:47.625Z,51.63
2018-02-16T00:50:16.733Z,46.77
2018-02-16T00:52:45.085Z,51.90
2018-02-16T00:55:13.345Z,58.03
2018-02-16T00:57:41.625Z,49.03
2018-02-16T01:00:09.926Z,52.70
2018-02-16T01:02:39.037Z,59.93
2018-02-16T01:05:07.335Z,59.70
2018-02-16T01:07:35.625Z,62.03
2018-02-16T01:10:03.925Z,55.63
2018-02-16T01:12:32.245Z,54.17
2018-02-16T01:15:00.565Z,50.57
2018-02-16T01:17:28.905Z,67.27
2018-02-16T01:19:57.185Z,51.27
2018-02-16T01:22:25.470Z,60.63
2018-02-16T01:24:53.737Z,57.90
2018-02-16T01:27:22.085Z,62.23
2018-02-16T01:29:51.186Z,59.17
2018-02-16T01:32:19.465Z,47.73
2018-02-16T01:34:48.489Z,43.57
2018-02-16T01:37:16.777Z,56.87
2018-02-16T01:39:45.133Z,64.40
2018-02-16T01:42:13.424Z,54.90
2018-02-16T01:44:41.705Z,53.37
2018-02-16T01:47:09.985Z,44.57
2018-02-16T01:52:46.757Z,52.13
2018-02-16T01:55:15.067Z,64.80
2018-02-16T01:57:43.365Z,57.93
2018-02-16T02:00:11.657Z,57.50
2018-02-16T02:02:40.685Z,65.50
2018-02-16T02:05:09.005Z,55.00
2018-02-16T02:07:37.349Z,51.27
2018-02-16T02:10:05.626Z,51.17
2018-02-16T02:12:33.905Z,52.83
2018-02-16T02:15:02.197Z,56.87
2018-02-16T02:17:30.549Z,56.53
2018-02-16T02:19:58.845Z,59.33
2018-02-16T02:22:27.133Z,49.57
2018-02-16T02:24:55.425Z,50.43
2018-02-16T02:27:23.685Z,47.37
2018-02-16T02:29:52.004Z,50.63
2018-02-16T02:32:21.112Z,52.13
2018-02-16T02:34:49.404Z,54.00
2018-02-16T02:37:17.656Z,50.40
2018-02-16T02:39:45.920Z,49.40
2018-02-16T02:42:15.001Z,54.60
2018-02-16T02:44:43.280Z,52.70
2018-02-16T02:47:12.341Z,50.03
2018-02-16T02:49:40.612Z,47.23
2018-02-16T02:52:08.884Z,51.17
2018-02-16T02:54:37.263Z,45.90
2018-02-16T02:57:05.548Z,50.43
2018-02-16T02:59:33.824Z,48.90
2018-02-16T03:02:02.100Z,48.90
2018-02-16T03:04:30.429Z,49.07
2018-02-16T03:06:59.501Z,47.17
2018-02-16T03:09:27.764Z,52.10
2018-02-16T03:11:56.046Z,49.00
2018-02-16T03:14:24.514Z,51.40
2018-02-16T03:16:52.780Z,54.17
2018-02-16T03:19:21.092Z,46.37
2018-02-16T03:21:50.135Z,57.87
2018-02-16T03:24:18.396Z,67.30
2018-02-16T03:26:46.804Z,53.90
2018-02-16T03:29:15.080Z,51.10
2018-02-16T03:31:43.393Z,41.63
2018-02-16T03:34:12.552Z,44.40
2018-02-16T03:36:40.940Z,50.83
2018-02-16T03:39:09.412Z,52.20
2018-02-16T03:41:37.708Z,51.53
2018-02-16T03:44:06.079Z,50.07
2018-02-16T03:46:35.136Z,45.63
2018-02-16T03:49:03.431Z,49.53
2018-02-16T03:51:31.777Z,58.23
2018-02-16T03:54:00.193Z,49.60
2018-02-16T03:56:28.498Z,48.43
2018-02-16T03:58:56.757Z,46.97
2018-02-16T04:01:25.024Z,46.37
2018-02-16T04:03:53.288Z,54.70
2018-02-16T04:06:21.572Z,46.17
2018-02-16T04:08:49.880Z,50.87
2018-02-16T04:11:18.152Z,50.47
2018-02-16T04:13:46.489Z,52.33
2018-02-16T04:16:14.763Z,53.53
2018-02-16T04:18:43.122Z,46.80
2018-02-16T04:21:11.428Z,47.30
2018-02-16T04:23:39.715Z,55.77
2018-02-16T04:26:08.187Z,61.17
2018-02-16T04:28:36.464Z,59.17
2018-02-16T04:31:04.740Z,52.07
2018-02-16T04:33:33.223Z,54.47
2018-02-16T04:36:02.326Z,47.10
2018-02-16T04:38:30.697Z,51.53
2018-02-16T04:40:58.976Z,51.27
2018-02-16T04:43:27.422Z,51.07
2018-02-16T04:45:55.831Z,58.60
2018-02-16T04:48:24.216Z,56.07
2018-02-16T04:50:52.687Z,71.10
2018-02-16T04:53:20.956Z,53.90
2018-02-16T04:55:49.260Z,48.23
2018-02-16T04:58:17.723Z,44.93
2018-02-16T05:00:46.167Z,45.73
2018-02-16T05:03:14.581Z,57.30
2018-02-16T05:05:42.856Z,56.07
2018-02-16T05:08:11.136Z,47.57
2018-02-16T05:10:39.440Z,40.90
2018-02-16T05:13:07.709Z,53.03
2018-02-16T05:15:36.002Z,46.73
2018-02-16T05:18:05.053Z,47.07
2018-02-16T05:20:33.401Z,48.27
2018-02-16T05:23:01.704Z,59.47
2018-02-16T05:25:30.007Z,71.47
2018-02-16T05:27:58.468Z,64.70
2018-02-16T05:30:26.740Z,59.83
2018-02-16T05:32:55.221Z,55.83
2018-02-16T05:35:23.711Z,71.00
2018-02-16T05:37:52.164Z,60.10
2018-02-16T05:40:20.428Z,69.47
2018-02-16T05:42:48.713Z,62.60
2018-02-16T05:45:17.124Z,61.27
2018-02-16T05:47:45.592Z,54.00
2018-02-16T05:50:14.039Z,62.40
2018-02-16T05:52:42.324Z,69.03
2018-02-16T05:55:10.591Z,74.23
2018-02-16T05:57:38.894Z,66.23
2018-02-16T06:00:07.217Z,72.03
2018-02-16T06:02:36.264Z,88.73
2018-02-16T06:05:04.660Z,85.80
2018-02-16T06:07:33.132Z,93.83
2018-02-16T06:10:01.619Z,77.63
2018-02-16T06:12:29.923Z,73.03
2018-02-16T06:14:59.028Z,70.80
2018-02-16T06:17:27.360Z,68.43
2018-02-16T06:19:55.644Z,56.93
2018-02-16T06:22:24.118Z,58.77
2018-02-16T06:24:52.570Z,55.53
2018-02-16T06:27:20.977Z,66.20
2018-02-16T06:29:49.465Z,59.77
2018-02-16T06:32:17.945Z,65.90
2018-02-16T06:34:46.216Z,66.07
2018-02-16T06:37:14.592Z,72.40
2018-02-16T06:39:43.053Z,64.67
2018-02-16T06:42:11.452Z,90.33
2018-02-16T06:44:39.731Z,74.27
2018-02-16T06:47:08.110Z,74.73
2018-02-16T06:49:36.570Z,60.77
2018-02-16T06:52:04.850Z,69.10
2018-02-16T06:54:33.130Z,66.13
2018-02-16T06:57:01.453Z,61.23
2018-02-16T06:59:30.492Z,65.70
2018-02-16T07:01:58.986Z,64.50
2018-02-16T07:04:27.374Z,65.67
2018-02-16T07:06:55.707Z,63.90
2018-02-16T07:09:24.140Z,61.87
2018-02-16T07:11:52.424Z,70.83
2018-02-16T07:14:20.737Z,59.70
2018-02-16T07:16:49.024Z,68.40
2018-02-16T07:19:17.323Z,74.50
2018-02-16T07:21:45.598Z,72.03
2018-02-16T07:24:13.866Z,76.13
2018-02-16T07:26:42.170Z,75.87
2018-02-16T07:29:10.548Z,70.17
2018-02-16T07:31:38.811Z,65.73
2018-02-16T07:34:07.112Z,68.57
2018-02-16T07:36:35.376Z,69.47
2018-02-16T07:39:03.764Z,68.93
2018-02-16T07:41:32.037Z,64.07
2018-02-16T07:44:00.308Z,64.17
2018-02-16T07:46:28.588Z,62.63
2018-02-16T07:48:56.860Z,61.83
2018-02-16T07:51:25.172Z,55.13
2018-02-16T07:53:54.221Z,61.40
2018-02-16T07:56:22.508Z,48.90
2018-02-16T07:58:50.853Z,40.57
2018-02-16T08:01:19.160Z,36.50
2018-02-16T08:03:47.472Z,29.93
2018-02-16T08:06:16.524Z,30.40
2018-02-16T08:08:45.653Z,33.13
2018-02-16T08:11:14.676Z,41.00
2018-02-16T08:13:43.684Z,31.70
2018-02-16T08:16:11.993Z,31.23
2018-02-16T08:18:40.248Z,32.17
2018-02-16T08:21:08.532Z,38.23
2018-02-16T08:23:36.812Z,43.90
2018-02-16T08:26:05.092Z,39.07
2018-02-16T08:28:33.436Z,39.53
2018-02-16T08:31:01.708Z,37.50
2018-02-16T08:33:29.976Z,28.20
2018-02-16T08:35:58.252Z,27.70
2018-02-16T08:38:26.576Z,27.10
2018-02-16T08:40:54.924Z,29.90
2018-02-16T08:43:23.205Z,27.63
2018-02-16T08:45:51.549Z,28.33
2018-02-16T08:48:19.821Z,31.90
2018-02-16T08:50:48.112Z,36.10
2018-02-16T08:53:16.408Z,33.83
2018-02-16T08:55:44.682Z,33.43
2018-02-16T08:58:13.012Z,32.57
2018-02-16T09:00:42.045Z,31.43
2018-02-16T09:03:10.363Z,24.80
2018-02-16T09:05:38.701Z,33.13
2018-02-16T09:08:06.968Z,30.70
2018-02-16T09:10:35.234Z,43.90
2018-02-16T09:13:03.509Z,51.70
2018-02-16T09:15:31.787Z,50.20
2018-02-16T09:18:00.269Z,48.93
2018-02-16T09:20:28.608Z,54.23
2018-02-16T09:22:56.973Z,51.47
2018-02-16T09:25:25.482Z,50.93
2018-02-16T09:27:54.524Z,48.07
2018-02-16T09:30:23.085Z,46.10
2018-02-16T09:32:51.341Z,47.77
2018-02-16T09:35:20.402Z,49.40
2018-02-16T09:37:49.501Z,53.50
2018-02-16T09:40:17.784Z,61.83
2018-02-16T09:42:46.124Z,56.17
2018-02-16T09:45:15.200Z,58.47
2018-02-16T09:47:47.267Z,67.07
2018-02-16T09:50:15.709Z,66.50
2018-02-16T09:52:44.757Z,65.37
2018-02-16T09:55:13.160Z,62.93
2018-02-16T09:57:41.443Z,63.47
2018-02-16T10:00:09.730Z,67.20
2018-02-16T10:02:38.795Z,72.67
2018-02-16T10:05:07.994Z,76.07
2018-02-16T10:07:37.494Z,74.47
2018-02-16T10:10:05.853Z,74.90
2018-02-16T10:12:34.144Z,65.30
2018-02-16T10:15:02.440Z,63.80
2018-02-16T10:17:30.757Z,61.83
2018-02-16T10:20:00.062Z,64.50
2018-02-16T10:22:28.431Z,60.70
2018-02-16T10:24:57.691Z,70.70
2018-02-16T10:27:26.809Z,67.17
2018-02-16T10:29:55.892Z,64.63
2018-02-16T10:32:24.219Z,64.03
2018-02-16T10:34:52.510Z,65.87
2018-02-16T10:37:21.668Z,65.83
2018-02-16T10:39:50.768Z,63.17
2018-02-16T10:42:19.057Z,62.27
2018-02-16T10:44:47.399Z,58.60
2018-02-16T10:47:16.469Z,53.60
2018-02-16T10:49:44.915Z,49.50
2018-02-16T10:52:13.541Z,46.20
2018-02-16T10:54:41.862Z,42.50
2018-02-16T10:57:10.180Z,47.63
2018-02-16T10:59:38.471Z,43.97
2018-02-16T11:02:12.360Z,40.50
2018-02-16T11:04:46.297Z,34.33
2018-02-16T11:07:20.153Z,35.57
2018-02-16T11:09:48.448Z,31.80
2018-02-16T11:12:16.742Z,32.23
2018-02-16T11:14:45.020Z,32.10
2018-02-16T11:17:13.316Z,32.07
2018-02-16T11:19:42.410Z,30.60
2018-02-16T11:22:11.480Z,30.20
2018-02-16T11:24:39.784Z,29.23
2018-02-16T11:27:08.871Z,30.40
2018-02-16T11:29:38.043Z,28.80
2018-02-16T11:32:06.386Z,27.60
2018-02-16T11:34:34.668Z,27.53
2018-02-16T11:37:02.965Z,27.63
2018-02-16T11:39:31.306Z,17.47
2018-02-16T11:42:00.327Z,8.43
2018-02-16T11:44:28.684Z,7.00
2018-02-16T11:46:56.976Z,4.47
2018-02-16T11:49:25.251Z,4.30
2018-02-16T11:51:53.536Z,4.60
2018-02-16T11:54:21.824Z,5.17
2018-02-16T11:56:50.818Z,5.27
2018-02-16T11:59:20.032Z,6.20
2018-02-16T12:01:48.324Z,6.10
2018-02-16T12:04:17.384Z,7.20
2018-02-16T12:06:46.442Z,7.40
2018-02-16T12:09:14.769Z,7.10
2018-02-16T12:11:43.066Z,6.70
2018-02-16T12:14:12.104Z,6.37
2018-02-16T12:16:40.395Z,6.10
2018-02-16T12:19:08.706Z,5.63
2018-02-16T12:21:37.064Z,5.10
2018-02-16T12:24:05.367Z,8.30
2018-02-16T12:26:34.440Z,8.30
2018-02-16T12:29:02.731Z,8.13
2018-02-16T12:31:31.046Z,12.23
2018-02-16T12:33:59.435Z,15.10
2018-02-16T12:36:27.832Z,18.27
2018-02-16T12:38:56.149Z,15.63
2018-02-16T12:41:25.207Z,10.90
2018-02-16T12:43:53.492Z,5.83
2018-02-16T12:46:22.897Z,5.13
2018-02-16T12:48:51.195Z,4.97
2018-02-16T12:51:20.864Z,5.50
2018-02-16T12:53:49.155Z,4.13
2018-02-16T12:56:18.124Z,4.73
2018-02-16T12:58:46.453Z,4.73
2018-02-16T13:01:15.504Z,8.73
2018-02-16T13:03:43.786Z,7.13
2018-02-16T13:06:13.036Z,10.50
2018-02-16T13:08:42.105Z,11.50
2018-02-16T13:11:10.446Z,11.00
2018-02-16T13:13:38.760Z,14.50
2018-02-16T13:16:07.058Z,12.10
2018-02-16T13:18:36.518Z,10.87
2018-02-16T13:21:05.068Z,11.53
2018-02-16T13:23:33.381Z,11.27
2018-02-16T13:26:01.699Z,12.97
2018-02-16T13:28:30.146Z,15.20
2018-02-16T13:30:58.503Z,17.47
2018-02-16T13:33:27.635Z,18.77
2018-02-16T13:35:56.816Z,24.33
2018-02-16T13:38:26.693Z,26.23
2018-02-16T13:40:55.086Z,24.53
2018-02-16T13:43:23.582Z,22.40
2018-02-16T13:45:52.828Z,23.67
2018-02-16T13:48:21.361Z,23.10
2018-02-16T13:50:49.773Z,23.20
2018-02-16T13:53:18.893Z,21.90
2018-02-16T13:55:47.197Z,24.07
2018-02-16T13:58:15.508Z,27.93
2018-02-16T14:00:43.841Z,28.47
2018-02-16T14:03:12.096Z,33.57
2018-02-16T14:05:40.379Z,30.07
2018-02-16T14:08:08.707Z,26.37
2018-02-16T14:10:36.992Z,26.97
2018-02-16T14:13:05.320Z,29.93
2018-02-16T14:15:33.583Z,29.53
2018-02-16T14:18:01.873Z,36.33
2018-02-16T14:20:30.132Z,40.93
2018-02-16T14:22:58.408Z,42.67
2018-02-16T14:25:26.738Z,44.40
2018-02-16T14:27:55.001Z,42.47
2018-02-16T14:30:24.240Z,45.60
2018-02-16T14:32:53.286Z,44.37
2018-02-16T14:35:21.566Z,41.27
2018-02-16T14:37:49.892Z,40.73
2018-02-16T14:40:19.825Z,35.27
2018-02-16T14:42:48.132Z,40.13
2018-02-16T14:45:16.407Z,38.17
2018-02-16T14:47:44.695Z,36.93
2018-02-16T14:50:13.022Z,26.77
2018-02-16T14:52:41.310Z,25.03
2018-02-16T14:55:09.580Z,26.57
2018-02-16T14:57:37.864Z,23.77
2018-02-16T15:00:06.140Z,28.03
2018-02-16T15:02:34.469Z,28.73
2018-02-16T15:05:02.757Z,29.80
2018-02-16T15:07:31.837Z,28.27
2018-02-16T15:10:00.127Z,31.03
2018-02-16T15:12:29.172Z,35.10
2018-02-16T15:14:57.484Z,37.43
2018-02-16T15:17:25.805Z,32.87
2018-02-16T15:19:54.144Z,28.73
2018-02-16T15:22:22.396Z,25.07
2018-02-16T15:24:50.677Z,29.70
2018-02-16T15:27:19.001Z,25.57
2018-02-16T15:29:47.316Z,23.93
2018-02-16T15:32:15.577Z,21.63
2018-02-16T15:34:43.866Z,21.27
2018-02-16T15:37:12.926Z,21.30
2018-02-16T15:39:41.230Z,21.53
2018-02-16T15:42:09.527Z,22.23
2018-02-16T15:44:37.876Z,23.63
2018-02-16T15:47:06.188Z,21.23
2018-02-16T15:49:34.495Z,22.43
2018-02-16T15:52:03.574Z,23.03
2018-02-16T15:54:31.859Z,21.97
2018-02-16T15:57:00.906Z,21.47
2018-02-16T15:59:29.237Z,21.67
2018-02-16T16:01:58.293Z,20.60
2018-02-16T16:04:26.589Z,22.30
2018-02-16T16:06:54.913Z,22.27
2018-02-16T16:09:23.190Z,20.47
2018-02-16T16:11:51.468Z,28.60
2018-02-16T16:14:19.879Z,26.87
2018-02-16T16:16:48.938Z,29.03
2018-02-16T16:19:17.224Z,31.40
2018-02-16T16:21:46.388Z,25.50
2018-02-16T16:24:15.421Z,27.20
2018-02-16T16:26:43.725Z,29.50
2018-02-16T16:29:12.644Z,25.53
2018-02-16T16:31:41.718Z,27.40
2018-02-16T16:34:10.054Z,27.50
2018-02-16T16:36:38.350Z,28.53
2018-02-16T16:39:06.616Z,27.13
2018-02-16T16:41:34.914Z,29.30
2018-02-16T16:44:03.189Z,24.27
2018-02-16T16:46:32.323Z,31.43
2018-02-16T16:49:01.370Z,33.03
2018-02-16T16:51:29.664Z,26.33
2018-02-16T16:53:57.978Z,26.00
2018-02-16T16:56:26.264Z,27.13
2018-02-16T16:58:55.310Z,24.50
2018-02-16T17:01:23.577Z,23.83
2018-02-16T17:03:51.982Z,24.10
2018-02-16T17:06:21.053Z,23.13
2018-02-16T17:08:49.379Z,24.17
2018-02-16T17:11:17.658Z,29.53
2018-02-16T17:13:45.957Z,40.23
2018-02-16T17:16:14.254Z,38.10
2018-02-16T17:18:43.325Z,37.33
2018-02-16T17:21:11.658Z,30.13
2018-02-16T17:23:40.715Z,33.80
2018-02-16T17:26:08.995Z,27.90
2018-02-16T17:28:37.285Z,24.20
2018-02-16T17:31:05.595Z,26.97
2018-02-16T17:33:33.976Z,25.20
2018-02-16T17:36:02.244Z,24.10
2018-02-16T17:38:31.299Z,22.50
2018-02-16T17:41:00.437Z,24.30
2018-02-16T17:43:29.468Z,25.73
2018-02-16T17:45:57.807Z,26.00
2018-02-16T17:48:26.080Z,33.90
2018-02-16T19:15:31.848Z,17.17
2018-02-16T19:17:59.697Z,11.40
2018-02-16T19:24:33.404Z,19.63
2018-02-16T19:27:01.088Z,30.47
2018-02-16T19:29:28.850Z,26.00
2018-02-16T19:31:56.521Z,9.83
2018-02-16T19:34:24.219Z,10.73
2018-02-16T19:37:42.116Z,10.93
2018-02-16T19:40:09.989Z,12.90
2018-02-16T19:42:37.847Z,8.30
2018-02-16T19:45:05.712Z,6.67
2018-02-16T19:47:33.592Z,12.27
2018-02-16T19:50:01.447Z,6.30
2018-02-16T19:52:29.332Z,7.83
2018-02-16T19:54:59.119Z,7.00
2018-02-16T19:57:26.886Z,5.73
2018-02-16T19:59:54.656Z,4.20
2018-02-16T20:02:22.525Z,7.07
2018-02-16T20:06:14.875Z,4.20
2018-02-16T20:08:42.627Z,3.07
2018-02-16T20:11:10.391Z,5.43
2018-02-16T20:13:38.461Z,3.60
2018-02-16T20:16:06.217Z,4.03
2018-02-16T20:18:33.992Z,3.00
2018-02-16T20:21:01.760Z,3.13
2018-02-16T20:23:29.499Z,2.90
2018-02-16T20:25:58.195Z,3.07
2018-02-16T20:28:25.966Z,2.80
2018-02-16T20:30:53.741Z,3.73
2018-02-16T20:33:21.398Z,2.83
2018-02-16T20:35:49.091Z,3.47
2018-02-16T20:38:17.543Z,2.37
2018-02-16T20:40:45.296Z,2.67
2018-02-16T20:43:12.964Z,3.00
2018-02-16T20:45:40.622Z,2.23
2018-02-16T20:48:08.320Z,2.63
